Time;durP1;ratioP1;P1;durP2;ratioP2;P2;SDS_P1;SDS_P2;PMS_P1;PMS_P2;Temp;Humidity;BMP_temperature;BMP_pressure;BME280_temperature;BME280_humidity;BME280_pressure;Samples;Min_cycle;Max_cycle;Signal;HPM_P1;HPM_P2
2022/10/26 00:01:14;;;;;;;11.00;6.13;;;;;;;10.33;94.23;101355.97;5013646;28;20111;-74
2022/10/26 00:03:42;;;;;;;10.23;5.38;;;;;;;10.39;94.63;101360.72;5038997;28;20143;-73
2022/10/26 00:06:10;;;;;;;8.47;5.00;;;;;;;10.35;95.34;101341.13;5034352;28;20026;-73
2022/10/26 00:08:36;;;;;;;11.02;5.10;;;;;;;10.39;95.16;101357.28;5036151;28;20814;-73
2022/10/26 00:11:02;;;;;;;8.63;5.45;;;;;;;10.38;95.10;101346.09;5043414;28;20116;-74
2022/10/26 00:13:27;;;;;;;13.93;5.53;;;;;;;10.38;95.06;101335.72;5032244;28;20461;-73
2022/10/26 00:15:53;;;;;;;10.90;5.45;;;;;;;10.36;95.70;101337.59;5032887;28;20033;-74
2022/10/26 00:18:18;;;;;;;13.10;5.72;;;;;;;10.36;95.88;101335.00;5048458;28;20043;-74
2022/10/26 00:20:44;;;;;;;10.45;5.35;;;;;;;10.33;95.70;101322.25;5029216;28;20017;-74
2022/10/26 00:23:09;;;;;;;9.77;5.28;;;;;;;10.38;96.18;101325.34;5046206;28;20034;-73
2022/10/26 00:25:34;;;;;;;12.32;5.57;;;;;;;10.40;96.54;101328.66;5047090;28;20111;-74
2022/10/26 00:28:00;;;;;;;10.52;5.25;;;;;;;10.43;96.36;101335.38;5041110;28;20025;-73
2022/10/26 00:30:25;;;;;;;10.82;4.85;;;;;;;10.43;95.79;101328.41;5043295;28;20040;-74
2022/10/26 00:32:51;;;;;;;11.55;5.07;;;;;;;10.42;96.07;101326.75;5048123;28;20031;-73
2022/10/26 00:35:16;;;;;;;8.63;5.40;;;;;;;10.48;95.48;101335.88;5027688;28;20032;-73
2022/10/26 00:37:42;;;;;;;10.13;5.28;;;;;;;10.49;96.03;101324.53;5046108;28;20516;-75
2022/10/26 00:40:08;;;;;;;9.40;5.53;;;;;;;10.46;96.01;101322.19;5043853;28;20540;-73
2022/10/26 00:42:33;;;;;;;8.77;4.70;;;;;;;10.45;95.60;101312.75;5039362;28;20036;-75
2022/10/26 00:45:03;;;;;;;9.18;5.05;;;;;;;10.49;95.33;101317.59;5028289;28;20428;-76
2022/10/26 00:47:40;;;;;;;10.88;5.20;;;;;;;10.50;95.64;101319.25;5037381;28;20492;-73
2022/10/26 00:50:10;;;;;;;10.57;4.80;;;;;;;10.42;95.42;101311.19;5022137;28;20032;-74
2022/10/26 00:52:36;;;;;;;11.13;5.15;;;;;;;10.48;96.04;101315.13;5044450;28;20059;-74
2022/10/26 00:55:03;;;;;;;10.02;4.47;;;;;;;10.42;96.06;101300.81;5027744;28;20044;-74
2022/10/26 00:57:29;;;;;;;12.05;4.85;;;;;;;10.45;95.95;101304.97;5035077;28;20033;-75
2022/10/26 00:59:56;;;;;;;8.88;4.78;;;;;;;10.43;95.88;101297.28;5045384;28;20484;-77
2022/10/26 01:02:22;;;;;;;10.48;5.68;;;;;;;10.38;95.90;101289.06;5023654;28;20036;-74
2022/10/26 01:04:48;;;;;;;13.43;8.02;;;;;;;10.44;96.89;101295.56;5024047;28;20512;-73
2022/10/26 01:07:14;;;;;;;13.18;8.88;;;;;;;10.38;96.41;101283.88;5036604;28;20059;-74
2022/10/26 01:09:39;;;;;;;17.02;9.13;;;;;;;10.44;97.03;101304.16;5045643;28;20444;-74
2022/10/26 01:12:05;;;;;;;13.27;8.00;;;;;;;10.44;96.73;101293.78;5044912;28;20033;-77
2022/10/26 01:14:32;;;;;;;13.07;7.97;;;;;;;10.44;96.31;101288.59;5046427;28;20078;-74
2022/10/26 01:17:03;;;;;;;13.35;7.60;;;;;;;10.45;96.53;101285.06;5045273;28;20061;-74
2022/10/26 01:19:50;;;;;;;12.88;6.90;;;;;;;10.46;96.85;101273.75;5034098;28;20025;-73
2022/10/26 01:22:40;;;;;;;10.93;6.15;;;;;;;10.47;96.39;101277.16;5018468;28;20084;-74
2022/10/26 01:25:27;;;;;;;11.98;6.00;;;;;;;10.48;96.90;101284.81;5031695;28;20060;-73
2022/10/26 01:27:53;;;;;;;13.20;6.47;;;;;;;10.46;97.05;101284.13;5033789;28;20074;-73
2022/10/26 01:30:37;;;;;;;10.98;5.38;;;;;;;10.50;96.94;101303.72;5041542;28;20040;-73
2022/10/26 01:33:14;;;;;;;9.50;5.43;;;;;;;10.52;97.08;101296.63;5038581;28;20547;-75
2022/10/26 01:35:51;;;;;;;9.02;5.78;;;;;;;10.53;96.83;101293.09;5039189;28;20393;-74
2022/10/26 01:38:31;;;;;;;8.80;5.45;;;;;;;10.54;97.37;101286.97;5022341;28;20037;-74
2022/10/26 01:41:31;;;;;;;9.30;5.47;;;;;;;10.57;97.53;101294.53;5035158;28;20029;-74
2022/10/26 01:44:08;;;;;;;9.15;5.00;;;;;;;10.57;97.08;101278.97;5045362;28;20048;-73
2022/10/26 01:46:41;;;;;;;9.63;5.55;;;;;;;10.54;96.98;101258.44;5041168;28;20447;-73
2022/10/26 01:49:09;;;;;;;9.77;5.03;;;;;;;10.58;97.08;101270.22;5046058;28;20033;-74
2022/10/26 01:51:37;;;;;;;12.55;5.15;;;;;;;10.55;96.89;101264.44;5043040;28;20111;-75
2022/10/26 01:54:02;;;;;;;9.70;5.45;;;;;;;10.52;97.64;101249.94;5038499;28;20056;-74
2022/10/26 01:56:33;;;;;;;9.55;5.07;;;;;;;10.51;97.57;101258.66;5025890;28;20029;-74
2022/10/26 01:59:17;;;;;;;7.78;5.15;;;;;;;10.50;96.95;101246.66;5030432;28;20140;-74
2022/10/26 02:02:10;;;;;;;11.27;4.93;;;;;;;10.53;97.33;101240.41;5034890;28;20033;-74
2022/10/26 02:04:57;;;;;;;9.65;5.35;;;;;;;10.52;97.09;101247.34;5035802;28;20025;-74
2022/10/26 02:07:57;;;;;;;9.38;4.82;;;;;;;10.50;97.59;101236.28;5045207;28;20041;-73
2022/10/26 02:10:47;;;;;;;11.82;5.07;;;;;;;10.50;97.90;101251.84;5027775;28;20029;-74
2022/10/26 02:13:24;;;;;;;13.45;5.50;;;;;;;10.49;97.86;101250.16;5033939;28;20051;-74
2022/10/26 02:16:00;;;;;;;10.50;5.20;;;;;;;10.46;98.41;101241.81;5045016;28;20369;-73
2022/10/26 02:18:28;;;;;;;11.52;4.80;;;;;;;10.49;97.86;101244.97;5051456;28;20047;-74
2022/10/26 02:20:59;;;;;;;8.40;4.72;;;;;;;10.43;97.85;101232.47;5044801;28;20052;-74
2022/10/26 02:23:27;;;;;;;10.00;5.18;;;;;;;10.48;98.15;101235.53;5047030;28;20101;-74
2022/10/26 02:25:57;;;;;;;9.90;4.97;;;;;;;10.45;98.04;101228.00;5014890;28;20012;-74
2022/10/26 02:28:29;;;;;;;9.13;4.97;;;;;;;10.42;98.28;101223.03;5044917;28;20024;-74
2022/10/26 02:30:58;;;;;;;10.10;4.80;;;;;;;10.48;98.69;101232.94;5039600;28;20473;-73
2022/10/26 02:33:28;;;;;;;9.13;5.07;;;;;;;10.46;97.90;101216.69;5033350;28;20067;-74
2022/10/26 02:35:57;;;;;;;11.50;5.03;;;;;;;10.49;98.09;101224.22;5043008;28;20451;-74
2022/10/26 02:38:24;;;;;;;9.68;4.97;;;;;;;10.51;98.29;101227.56;5028987;28;20319;-74
2022/10/26 02:40:51;;;;;;;8.77;4.70;;;;;;;10.52;98.53;101224.00;5037783;28;20025;-74
2022/10/26 02:43:21;;;;;;;10.60;5.07;;;;;;;10.53;98.12;101217.88;5034443;28;20032;-74
2022/10/26 02:45:52;;;;;;;10.30;5.22;;;;;;;10.50;98.16;101215.53;5032514;28;20027;-73
2022/10/26 02:48:18;;;;;;;12.35;4.90;;;;;;;10.56;98.36;101225.44;5037116;28;20461;-74
2022/10/26 02:50:58;;;;;;;8.60;4.55;;;;;;;10.57;98.37;101221.91;5043951;28;20063;-74
2022/10/26 02:53:31;;;;;;;14.45;5.15;;;;;;;10.54;98.23;101216.09;5025826;28;20058;-73
2022/10/26 02:56:03;;;;;;;11.10;5.05;;;;;;;10.52;98.16;101213.63;5024217;28;20040;-74
2022/10/26 02:58:32;;;;;;;7.07;4.85;;;;;;;10.49;98.16;101208.66;5018073;28;20110;-75
2022/10/26 03:00:58;;;;;;;10.65;4.57;;;;;;;10.47;98.40;101205.38;5036133;28;20282;-75
2022/10/26 03:03:24;;;;;;;8.00;4.88;;;;;;;10.52;98.34;101218.81;5019558;28;20029;-75
2022/10/26 03:05:50;;;;;;;10.50;5.20;;;;;;;10.45;98.51;101204.66;5024508;28;20377;-74
2022/10/26 03:08:15;;;;;;;8.40;4.88;;;;;;;10.51;98.96;101219.78;5020874;28;20036;-74
2022/10/26 03:10:43;;;;;;;9.35;4.78;;;;;;;10.51;98.45;101217.19;5021408;28;20040;-74
2022/10/26 03:13:11;;;;;;;12.13;5.50;;;;;;;10.51;98.83;101213.75;5023339;28;20374;-73
2022/10/26 03:15:37;;;;;;;9.53;5.00;;;;;;;10.47;98.48;101205.38;5011420;28;20038;-73
2022/10/26 03:18:02;;;;;;;8.50;5.03;;;;;;;10.51;98.68;101217.19;5016713;28;20025;-73
2022/10/26 03:20:28;;;;;;;9.75;4.40;;;;;;;10.50;98.55;101207.75;5023498;28;20036;-73
2022/10/26 03:22:55;;;;;;;11.52;5.20;;;;;;;10.48;98.58;101212.19;5024295;28;20033;-74
2022/10/26 03:25:21;;;;;;;9.82;4.43;;;;;;;10.44;99.05;101210.81;5023702;28;20035;-74
2022/10/26 03:27:46;;;;;;;9.93;4.28;;;;;;;10.46;98.52;101203.72;5022846;28;20062;-74
2022/10/26 03:30:12;;;;;;;8.07;4.57;;;;;;;10.45;98.72;101199.47;5023829;28;20448;-74
2022/10/26 03:32:37;;;;;;;7.20;4.22;;;;;;;10.46;98.84;101198.53;5024693;28;20139;-74
2022/10/26 03:35:03;;;;;;;13.43;5.07;;;;;;;10.41;98.32;101189.44;5018864;28;20064;-73
2022/10/26 03:37:28;;;;;;;9.75;4.75;;;;;;;10.29;99.08;101170.44;5024159;28;20025;-73
2022/10/26 03:39:54;;;;;;;6.75;4.15;;;;;;;10.44;98.88;101189.22;5023218;28;20435;-73
2022/10/26 03:42:19;;;;;;;9.07;4.53;;;;;;;10.45;98.62;101191.69;5020649;28;20079;-74
2022/10/26 03:44:46;;;;;;;8.27;4.80;;;;;;;10.42;98.66;101186.72;5024209;28;20032;-74
2022/10/26 03:47:11;;;;;;;9.85;4.65;;;;;;;10.48;98.88;101195.81;5015690;28;20045;-74
2022/10/26 03:49:36;;;;;;;7.97;4.38;;;;;;;10.46;98.65;101187.34;5014855;28;20117;-75
2022/10/26 03:52:02;;;;;;;9.00;4.85;;;;;;;10.48;98.77;101191.47;5008396;28;20447;-74
2022/10/26 03:54:27;;;;;;;7.75;4.30;;;;;;;10.48;98.54;101188.88;5024501;28;20041;-74
2022/10/26 03:56:52;;;;;;;9.10;5.38;;;;;;;10.43;99.15;101183.19;5014666;28;20748;-73
2022/10/26 03:59:18;;;;;;;7.20;4.43;;;;;;;10.52;99.63;101197.25;5031005;28;20036;-74
2022/10/26 04:01:43;;;;;;;9.80;5.05;;;;;;;10.50;99.31;101189.59;5030768;28;20116;-74
2022/10/26 04:04:09;;;;;;;8.50;4.82;;;;;;;10.54;99.41;101195.34;5030656;28;20036;-74
2022/10/26 04:06:34;;;;;;;11.38;5.40;;;;;;;10.52;98.92;101185.09;5014774;28;20100;-75
2022/10/26 04:09:01;;;;;;;9.93;5.20;;;;;;;10.55;100.00;101197.84;5031514;28;20373;-74
2022/10/26 04:11:27;;;;;;;8.05;4.65;;;;;;;10.54;99.65;101196.19;5014649;28;20048;-74
2022/10/26 04:13:54;;;;;;;10.75;5.63;;;;;;;10.56;100.00;101194.31;5033837;28;20557;-74
2022/10/26 04:16:19;;;;;;;9.10;6.00;;;;;;;10.53;100.00;101184.16;5030560;28;20527;-74
2022/10/26 04:18:45;;;;;;;8.95;4.65;;;;;;;10.56;99.90;101199.50;5032468;28;20028;-74
2022/10/26 04:21:10;;;;;;;10.07;5.32;;;;;;;10.52;100.00;101187.69;5032605;28;20037;-73
2022/10/26 04:23:36;;;;;;;10.98;5.65;;;;;;;10.55;99.56;101182.28;5031122;28;20033;-73
2022/10/26 04:26:04;;;;;;;8.57;5.28;;;;;;;10.62;99.69;101193.84;5042083;28;20350;-74
2022/10/26 04:28:29;;;;;;;8.68;5.38;;;;;;;10.61;100.00;101197.41;5037266;28;20296;-74
2022/10/26 04:30:54;;;;;;;11.27;5.32;;;;;;;10.62;100.00;101178.28;5048283;28;20025;-74
2022/10/26 04:33:20;;;;;;;9.32;5.15;;;;;;;10.58;100.00;101171.66;5031570;28;20123;-74
2022/10/26 04:35:46;;;;;;;12.38;5.45;;;;;;;10.62;100.00;101188.66;5037838;28;20128;-73
2022/10/26 04:38:12;;;;;;;13.10;4.95;;;;;;;10.64;100.00;101191.94;5028371;28;20044;-75
2022/10/26 04:40:38;;;;;;;9.77;4.82;;;;;;;10.63;100.00;101182.53;5028069;28;20364;-76
2022/10/26 04:43:03;;;;;;;11.98;5.18;;;;;;;10.67;99.80;101184.88;5035773;28;20028;-73
2022/10/26 04:45:29;;;;;;;8.85;4.88;;;;;;;10.65;100.00;101172.03;5031309;28;20123;-74
2022/10/26 04:48:11;;;;;;;10.50;5.03;;;;;;;10.68;99.61;101177.00;5041584;28;20064;-73
2022/10/26 04:50:37;;;;;;;12.32;5.20;;;;;;;10.69;100.00;101172.63;5041997;28;20119;-74
2022/10/26 04:53:04;;;;;;;10.90;4.90;;;;;;;10.64;100.00;101166.00;5047130;28;20043;-74
2022/10/26 04:55:30;;;;;;;8.32;4.80;;;;;;;10.65;100.00;101166.84;5042479;28;20028;-74
2022/10/26 04:57:55;;;;;;;10.00;5.30;;;;;;;10.68;100.00;101170.97;5033312;28;20111;-73
2022/10/26 05:00:21;;;;;;;9.90;4.80;;;;;;;10.73;99.85;101174.06;5033170;28;20060;-74
2022/10/26 05:02:46;;;;;;;7.25;4.20;;;;;;;10.67;100.00;101164.13;5010266;28;20034;-74
2022/10/26 05:05:12;;;;;;;11.38;4.63;;;;;;;10.72;100.00;101167.19;5028939;28;20026;-74
2022/10/26 05:07:37;;;;;;;8.43;4.45;;;;;;;10.72;100.00;101162.00;5032443;28;20027;-74
2022/10/26 05:10:03;;;;;;;8.75;4.30;;;;;;;10.74;100.00;101175.69;5032469;28;20553;-75
2022/10/26 05:12:29;;;;;;;10.00;5.10;;;;;;;10.74;100.00;101175.69;5032938;28;20639;-74
2022/10/26 05:14:57;;;;;;;8.80;5.07;;;;;;;10.73;100.00;101176.66;5023960;28;20384;-74
2022/10/26 05:17:23;;;;;;;;;;;;;;;10.81;100.00;101176.88;5030800;28;20029;-74
2022/10/26 05:19:54;;;;;;;9.88;4.32;;;;;;;10.79;100.00;101176.19;5032349;28;19920;-74
2022/10/26 05:22:19;;;;;;;7.82;4.75;;;;;;;10.79;100.00;101183.97;5029537;28;20036;-74
2022/10/26 05:24:45;;;;;;;10.80;4.63;;;;;;;10.79;100.00;101171.00;5020289;28;20510;-76
2022/10/26 05:27:10;;;;;;;8.63;4.55;;;;;;;10.77;100.00;101171.09;5027259;28;20025;-74
2022/10/26 05:29:35;;;;;;;8.43;4.70;;;;;;;10.82;100.00;101189.72;5027560;28;20025;-74
2022/10/26 05:32:01;;;;;;;9.32;4.88;;;;;;;10.81;99.96;101176.88;5030638;28;20145;-74
2022/10/26 05:34:26;;;;;;;8.93;4.63;;;;;;;10.84;100.00;101192.22;5042430;28;20052;-75
2022/10/26 05:36:52;;;;;;;8.15;4.63;;;;;;;10.75;100.00;101169.56;5037479;28;20675;-74
2022/10/26 05:39:18;;;;;;;10.50;4.50;;;;;;;10.80;100.00;101178.66;5028083;28;20029;-74
2022/10/26 05:41:43;;;;;;;10.23;4.72;;;;;;;10.77;100.00;101183.22;5039023;28;20358;-73
2022/10/26 05:44:08;;;;;;;8.85;4.53;;;;;;;10.83;100.00;101195.72;5045954;28;20057;-73
2022/10/26 05:46:34;;;;;;;8.40;5.05;;;;;;;10.83;100.00;101195.72;5034962;28;20027;-74
2022/10/26 05:48:59;;;;;;;10.10;4.40;;;;;;;10.82;100.00;101194.09;5057872;28;20116;-73
2022/10/26 05:51:24;;;;;;;10.95;4.28;;;;;;;10.81;100.00;101201.06;5021868;28;20036;-74
2022/10/26 05:53:53;;;;;;;9.48;4.80;;;;;;;10.82;100.00;101204.47;5043221;28;20147;-74
2022/10/26 05:56:25;;;;;;;12.75;4.70;;;;;;;10.83;100.00;101200.94;5030409;28;20036;-73
2022/10/26 05:58:51;;;;;;;8.85;3.92;;;;;;;10.78;100.00;101192.66;5024343;28;20032;-73
2022/10/26 06:01:29;;;;;;;7.38;4.20;;;;;;;10.84;99.64;101208.63;5044109;28;20049;-74
2022/10/26 06:04:24;;;;;;;10.05;4.15;;;;;;;10.87;99.34;101210.13;5051223;28;20167;-73
2022/10/26 06:06:53;;;;;;;10.52;4.50;;;;;;;10.82;99.94;101201.88;5033191;28;20040;-74
2022/10/26 06:09:19;;;;;;;10.70;4.65;;;;;;;10.78;99.94;101203.03;5049347;28;20036;-74
2022/10/26 06:11:44;;;;;;;10.50;4.70;;;;;;;10.81;100.00;101218.38;5027607;28;20033;-74
2022/10/26 06:14:10;;;;;;;9.23;3.78;;;;;;;10.77;99.95;101210.00;5030970;28;20024;-74
2022/10/26 06:16:45;;;;;;;6.75;4.25;;;;;;;10.83;99.27;101224.28;5034187;28;20120;-75
2022/10/26 06:19:22;;;;;;;6.88;4.03;;;;;;;10.82;99.89;101217.44;5032154;28;20082;-74
2022/10/26 06:22:00;;;;;;;8.10;4.20;;;;;;;10.81;99.37;101223.56;5035206;28;20461;-74
2022/10/26 06:24:25;;;;;;;7.15;4.32;;;;;;;10.79;99.65;101220.28;5034353;28;20108;-74
2022/10/26 06:27:14;;;;;;;10.63;5.03;;;;;;;10.78;100.00;101213.41;5036948;28;20423;-74
2022/10/26 06:30:10;;;;;;;7.45;4.28;;;;;;;10.78;99.59;101213.41;5036869;28;20041;-75
2022/10/26 06:32:43;;;;;;;7.50;4.57;;;;;;;10.77;99.71;101214.38;5044778;28;20028;-74
2022/10/26 06:35:30;;;;;;;9.00;3.90;;;;;;;10.80;100.00;101212.38;5036851;28;20033;-74
2022/10/26 06:38:00;;;;;;;7.68;4.30;;;;;;;10.79;99.63;101220.28;5050404;28;20032;-74
2022/10/26 06:40:26;;;;;;;9.27;4.00;;;;;;;10.79;99.82;101220.28;5048121;28;20059;-74
2022/10/26 06:42:52;;;;;;;10.07;4.20;;;;;;;10.79;99.57;101225.47;5040006;28;20025;-74
2022/10/26 06:45:18;;;;;;;7.45;4.05;;;;;;;10.80;99.65;101221.94;5042015;28;20477;-74
2022/10/26 06:47:43;;;;;;;12.85;4.13;;;;;;;10.79;99.35;101220.28;5028833;28;20027;-74
2022/10/26 06:50:25;;;;;;;14.20;4.80;;;;;;;10.77;100.00;101216.97;5044294;28;20071;-75
2022/10/26 06:53:13;;;;;;;11.10;4.95;;;;;;;10.75;100.00;101213.66;5030567;28;20039;-74
2022/10/26 06:55:41;;;;;;;15.38;4.55;;;;;;;10.77;99.93;101216.97;5045712;28;20031;-73
2022/10/26 06:58:30;;;;;;;;;;;;;;;10.82;98.98;101207.06;5030323;28;20056;-73
2022/10/26 07:00:56;;;;;;;14.57;4.32;;;;;;;10.77;99.90;101201.41;5025281;28;19917;-73
2022/10/26 07:03:22;;;;;;;11.05;4.85;;;;;;;10.75;100.00;101196.31;5027626;28;20040;-73
2022/10/26 07:05:48;;;;;;;13.05;4.93;;;;;;;10.80;100.00;101206.38;5027545;28;20029;-74
2022/10/26 07:08:13;;;;;;;11.55;4.78;;;;;;;10.84;100.00;101198.22;5048570;28;20067;-75
2022/10/26 07:10:39;;;;;;;8.98;4.65;;;;;;;10.84;100.00;101205.19;5043519;28;20125;-74
2022/10/26 07:13:05;;;;;;;10.20;4.90;;;;;;;10.92;100.00;101220.16;5045024;28;20025;-73
2022/10/26 07:15:31;;;;;;;13.18;5.05;;;;;;;10.94;100.00;101219.09;5028823;28;20061;-74
2022/10/26 07:17:57;;;;;;;9.30;4.00;;;;;;;10.92;100.00;101210.59;5031102;28;20393;-73
2022/10/26 07:20:22;;;;;;;7.15;4.07;;;;;;;11.01;100.00;101220.28;5037225;28;20028;-74
2022/10/26 07:22:55;;;;;;;9.40;3.80;;;;;;;11.03;100.00;101213.19;5040794;28;20035;-74
2022/10/26 07:25:21;;;;;;;7.68;4.18;;;;;;;11.08;100.00;101211.09;5029693;28;20438;-74
2022/10/26 07:27:47;;;;;;;9.10;4.15;;;;;;;11.14;100.00;101221.00;5042441;28;20089;-75
2022/10/26 07:30:13;;;;;;;8.15;4.65;;;;;;;11.20;100.00;101231.84;5044977;28;20472;-74
2022/10/26 07:32:38;;;;;;;10.95;4.90;;;;;;;11.21;100.00;101233.50;5044222;28;20374;-73
2022/10/26 07:35:04;;;;;;;12.50;5.00;;;;;;;11.27;100.00;101238.22;5034837;28;20066;-75
2022/10/26 07:37:29;;;;;;;9.57;5.63;;;;;;;11.30;100.00;101241.41;5054615;28;20040;-73
2022/10/26 07:39:55;;;;;;;9.70;4.85;;;;;;;11.34;100.00;101231.59;5037887;28;20473;-74
2022/10/26 07:42:20;;;;;;;9.43;4.32;;;;;;;11.40;100.00;101233.69;5033286;28;20064;-73
2022/10/26 07:44:45;;;;;;;11.02;4.78;;;;;;;11.41;100.00;101238.78;5030075;28;20067;-74
2022/10/26 07:47:11;;;;;;;9.63;4.30;;;;;;;11.41;100.00;101233.59;5037610;28;20024;-73
2022/10/26 07:49:36;;;;;;;9.32;4.55;;;;;;;11.43;100.00;101236.06;5032755;28;20552;-73
2022/10/26 07:52:02;;;;;;;8.73;4.30;;;;;;;11.50;100.00;101245.03;5033323;28;20065;-74
2022/10/26 07:54:27;;;;;;;6.78;4.72;;;;;;;11.55;100.00;101245.50;5028527;28;20053;-75
2022/10/26 07:56:53;;;;;;;10.55;5.15;;;;;;;11.60;100.00;101248.56;5028199;28;20029;-73
2022/10/26 07:59:18;;;;;;;8.60;4.95;;;;;;;11.66;100.00;101263.66;5028131;28;20091;-74
2022/10/26 08:01:43;;;;;;;7.32;4.53;;;;;;;11.70;100.00;101259.88;5030386;28;20033;-77
2022/10/26 08:04:09;;;;;;;11.27;5.00;;;;;;;11.75;100.00;101250.88;5032609;28;20020;-73
2022/10/26 08:06:34;;;;;;;8.55;4.53;;;;;;;11.81;100.00;101264.22;5035007;28;20025;-75
2022/10/26 08:09:00;;;;;;;10.50;5.35;;;;;;;11.89;100.00;101268.81;5035729;28;20032;-74
2022/10/26 08:11:25;;;;;;;8.60;4.82;;;;;;;11.89;100.00;101261.03;5029872;28;20052;-73
2022/10/26 08:13:52;;;;;;;10.93;5.10;;;;;;;11.98;100.00;101273.28;5028387;28;20057;-73
2022/10/26 08:16:18;;;;;;;12.20;5.22;;;;;;;12.05;100.00;101264.06;5031268;28;20033;-73
2022/10/26 08:18:43;;;;;;;11.75;4.93;;;;;;;12.15;100.00;101270.13;5033296;28;20075;-74
2022/10/26 08:21:13;;;;;;;9.23;4.70;;;;;;;12.22;100.00;101271.31;5030723;28;20120;-74
2022/10/26 08:23:39;;;;;;;7.55;4.50;;;;;;;12.22;100.00;101271.31;5031063;28;20103;-74
2022/10/26 08:26:05;;;;;;;10.52;4.47;;;;;;;12.40;100.00;101286.38;5031563;28;20420;-73
2022/10/26 08:28:30;;;;;;;8.75;4.57;;;;;;;12.47;100.00;101277.09;5028646;28;20080;-73
2022/10/26 08:30:56;;;;;;;9.38;4.32;;;;;;;12.58;99.82;101286.63;5033695;28;20055;-73
2022/10/26 08:33:22;;;;;;;7.50;3.78;;;;;;;12.65;99.60;101283.38;5011784;28;20041;-76
2022/10/26 08:35:53;;;;;;;6.25;3.70;;;;;;;12.76;98.67;101283.31;5013900;28;20377;-73
2022/10/26 08:38:18;;;;;;;6.95;3.80;;;;;;;12.82;98.43;101273.34;5035061;28;20119;-75
2022/10/26 08:40:44;;;;;;;6.90;3.28;;;;;;;12.89;98.16;101280.50;5037792;28;20521;-75
2022/10/26 08:43:28;;;;;;;10.68;3.50;;;;;;;12.99;98.12;101277.94;5041488;28;20587;-73
2022/10/26 08:46:04;;;;;;;7.55;3.83;;;;;;;13.04;97.78;101288.81;5034067;28;20055;-76
2022/10/26 08:48:34;;;;;;;8.70;4.03;;;;;;;13.12;97.13;101296.78;5044367;28;20025;-73
2022/10/26 08:51:05;;;;;;;7.40;4.38;;;;;;;13.12;96.79;101299.38;5045589;28;20040;-74
2022/10/26 08:53:56;;;;;;;9.32;4.00;;;;;;;13.19;97.08;101291.88;5027308;28;20473;-74
2022/10/26 08:56:56;;;;;;;8.10;4.05;;;;;;;13.15;97.00;101286.13;5021868;28;20091;-73
2022/10/26 08:59:37;;;;;;;8.73;4.47;;;;;;;13.26;96.49;101301.69;5017953;28;20041;-74
2022/10/26 09:02:02;;;;;;;8.68;4.72;;;;;;;13.32;96.28;101300.34;5026468;28;20025;-76
2022/10/26 09:04:30;;;;;;;9.40;4.90;;;;;;;13.40;96.27;101294.47;5024068;28;20040;-73
2022/10/26 09:07:01;;;;;;;11.80;4.40;;;;;;;13.50;96.62;101301.38;5019242;28;20064;-73
2022/10/26 09:09:49;;;;;;;7.55;4.50;;;;;;;13.61;96.64;101291.81;5022462;28;20037;-73
2022/10/26 09:12:27;;;;;;;9.38;4.53;;;;;;;13.75;96.47;101300.03;5010677;28;20045;-74
2022/10/26 09:15:07;;;;;;;10.45;4.65;;;;;;;13.90;96.24;101289.25;5005442;28;20069;-74
2022/10/26 09:17:36;;;;;;;7.38;4.18;;;;;;;13.99;95.50;101296.25;5001970;28;20129;-74
2022/10/26 09:20:37;;;;;;;8.27;4.25;;;;;;;14.14;95.81;101294.06;4999590;28;20521;-73
2022/10/26 09:23:12;;;;;;;12.52;4.60;;;;;;;14.30;95.18;101289.94;5002914;28;20060;-74
2022/10/26 09:25:39;;;;;;;9.00;4.65;;;;;;;14.37;94.16;101289.41;5002454;28;20506;-73
2022/10/26 09:28:17;;;;;;;6.75;3.97;;;;;;;14.45;94.21;101292.13;5002041;28;20513;-73
2022/10/26 09:30:45;;;;;;;6.88;4.10;;;;;;;14.51;94.09;101302.06;5002391;28;20041;-76
2022/10/26 09:33:14;;;;;;;7.83;4.00;;;;;;;14.65;93.45;101304.25;5002683;28;20536;-75
2022/10/26 09:35:49;;;;;;;9.50;3.88;;;;;;;14.72;93.18;101300.09;4997079;28;20890;-75
2022/10/26 09:38:29;;;;;;;8.35;3.42;;;;;;;14.79;93.55;101316.84;4997473;28;20022;-74
2022/10/26 09:41:00;;;;;;;8.82;4.35;;;;;;;14.88;92.47;101320.41;5000255;28;20038;-74
2022/10/26 09:43:36;;;;;;;7.55;3.08;;;;;;;14.98;93.01;101336.06;5004446;28;20045;-74
2022/10/26 09:46:01;;;;;;;7.15;3.83;;;;;;;15.09;91.53;101343.75;5000460;28;20029;-74
2022/10/26 09:48:47;;;;;;;9.70;3.75;;;;;;;15.17;92.45;101343.84;5002457;28;20096;-74
2022/10/26 09:51:15;;;;;;;8.32;3.72;;;;;;;15.24;91.84;101355.38;5013915;28;20029;-76
2022/10/26 09:53:40;;;;;;;8.18;3.28;;;;;;;15.30;92.49;101352.19;5026659;28;20065;-77
2022/10/26 09:56:10;;;;;;;8.18;3.22;;;;;;;15.39;92.04;101360.97;5037234;28;20034;-74
2022/10/26 09:59:01;;;;;;;6.43;3.67;;;;;;;15.46;91.89;101366.44;5040927;28;20043;-74
2022/10/26 10:01:26;;;;;;;6.40;3.20;;;;;;;15.50;91.47;101366.00;5039574;28;20122;-74
2022/10/26 10:04:12;;;;;;;7.07;3.90;;;;;;;15.58;91.55;101360.06;5040476;28;20516;-75
2022/10/26 10:06:41;;;;;;;8.30;4.30;;;;;;;15.65;91.33;101363.75;5028213;28;20045;-77
2022/10/26 10:09:11;;;;;;;9.23;4.10;;;;;;;15.63;90.62;101357.88;5037129;28;20112;-77
2022/10/26 10:11:42;;;;;;;6.88;3.38;;;;;;;15.76;90.40;101368.81;5038739;28;20036;-73
2022/10/26 10:14:14;;;;;;;8.20;3.17;;;;;;;15.83;91.00;101369.88;5040147;28;20032;-74
2022/10/26 10:16:41;;;;;;;7.65;3.97;;;;;;;15.97;90.92;101365.94;5046551;28;20029;-73
2022/10/26 10:19:21;;;;;;;7.97;4.00;;;;;;;15.98;90.84;101372.00;5039306;28;20035;-74
2022/10/26 10:21:53;;;;;;;7.25;3.75;;;;;;;16.12;90.11;101384.59;5023735;28;20458;-75
2022/10/26 10:24:21;;;;;;;7.43;3.47;;;;;;;16.17;89.41;101387.56;5033867;28;20032;-77
2022/10/26 10:27:04;;;;;;;6.95;3.20;;;;;;;16.26;89.98;101393.72;5041698;28;20128;-73
2022/10/26 10:29:32;;;;;;;9.90;3.55;;;;;;;16.25;88.66;101392.91;5046478;28;20369;-74
2022/10/26 10:32:00;;;;;;;8.38;3.22;;;;;;;16.38;89.24;101401.19;5039060;28;20036;-74
2022/10/26 10:34:26;;;;;;;6.05;3.50;;;;;;;16.40;88.37;101417.59;5031357;28;20160;-74
2022/10/26 10:36:53;;;;;;;7.80;3.22;;;;;;;16.44;88.05;101418.13;5035653;28;20016;-73
2022/10/26 10:39:39;;;;;;;7.00;3.47;;;;;;;16.55;88.90;101417.06;5029771;28;20438;-74
2022/10/26 10:42:19;;;;;;;8.18;3.40;;;;;;;16.59;88.94;101424.50;5033512;28;20545;-74
2022/10/26 10:44:47;;;;;;;9.82;3.58;;;;;;;16.57;88.70;101425.59;5027958;28;20473;-74
2022/10/26 10:47:25;;;;;;;7.78;3.17;;;;;;;16.74;89.09;101432.66;5042583;28;20467;-76
2022/10/26 10:49:58;;;;;;;8.88;3.90;;;;;;;16.72;87.68;101426.75;5030299;28;20060;-74
2022/10/26 10:52:28;;;;;;;8.85;3.65;;;;;;;16.94;88.17;101428.91;5031968;28;20477;-74
2022/10/26 10:55:05;;;;;;;7.60;3.30;;;;;;;16.96;87.38;101432.19;5030899;28;20198;-76
2022/10/26 10:57:58;;;;;;;7.90;3.33;;;;;;;17.02;87.17;101432.56;5026181;28;20415;-75
2022/10/26 11:00:24;;;;;;;8.63;3.05;;;;;;;16.97;87.18;101449.59;5042333;28;20037;-74
2022/10/26 11:03:27;;;;;;;8.35;3.47;;;;;;;17.06;87.47;101458.31;5046048;28;20128;-74
2022/10/26 11:06:17;;;;;;;9.32;3.38;;;;;;;17.13;87.36;101458.53;5047899;28;20047;-74
2022/10/26 11:09:00;;;;;;;9.82;4.00;;;;;;;17.18;86.38;101453.66;5046557;28;20066;-73
2022/10/26 11:11:37;;;;;;;10.35;3.83;;;;;;;17.16;85.41;101456.44;5038680;28;20036;-75
2022/10/26 11:14:13;;;;;;;8.20;3.67;;;;;;;17.14;85.79;101463.59;5033462;28;20020;-74
2022/10/26 11:16:45;;;;;;;9.18;3.47;;;;;;;17.22;86.43;101473.34;5048541;28;20107;-73
2022/10/26 11:19:27;;;;;;;7.30;3.22;;;;;;;17.26;85.95;101464.19;5052014;28;20046;-74
2022/10/26 11:21:54;;;;;;;9.45;3.65;;;;;;;17.41;86.02;101473.16;5055312;28;20383;-74
2022/10/26 11:24:28;;;;;;;6.95;3.30;;;;;;;17.42;86.13;101474.78;5048130;28;20024;-74
2022/10/26 11:27:16;;;;;;;7.22;3.45;;;;;;;17.46;86.24;101472.69;5046489;28;20417;-74
2022/10/26 11:29:57;;;;;;;8.68;3.42;;;;;;;17.41;85.30;101472.34;5037993;28;20029;-73
2022/10/26 11:32:33;;;;;;;8.57;3.40;;;;;;;17.38;86.04;101486.59;5038080;28;20373;-74
2022/10/26 11:35:04;;;;;;;8.48;3.42;;;;;;;17.34;85.57;101481.78;5035863;28;20028;-74